sensor_id;sensor_type;location;lat;lon;timestamp;temperature;humidity
39021;DHT22;25188;51.958;5.842;2023-06-14T00:00:20;21.30;47.90
39021;DHT22;25188;51.958;5.842;2023-06-14T00:02:46;21.30;48.10
39021;DHT22;25188;51.958;5.842;2023-06-14T00:05:12;21.20;48.20
39021;DHT22;25188;51.958;5.842;2023-06-14T00:07:39;21.10;48.40
39021;DHT22;25188;51.958;5.842;2023-06-14T00:10:08;21.10;48.60
39021;DHT22;25188;51.958;5.842;2023-06-14T00:12:34;21.10;48.50
39021;DHT22;25188;51.958;5.842;2023-06-14T00:15:00;21.00;49.00
39021;DHT22;25188;51.958;5.842;2023-06-14T00:17:29;21.00;49.10
39021;DHT22;25188;51.958;5.842;2023-06-14T00:19:58;20.90;48.80
39021;DHT22;25188;51.958;5.842;2023-06-14T00:22:25;20.90;49.10
39021;DHT22;25188;51.958;5.842;2023-06-14T00:24:51;20.90;49.20
39021;DHT22;25188;51.958;5.842;2023-06-14T00:27:17;20.80;49.30
39021;DHT22;25188;51.958;5.842;2023-06-14T00:29:42;20.80;49.40
39021;DHT22;25188;51.958;5.842;2023-06-14T00:32:08;20.80;49.60
39021;DHT22;25188;51.958;5.842;2023-06-14T00:34:34;20.70;49.50
39021;DHT22;25188;51.958;5.842;2023-06-14T00:37:00;20.70;49.60
39021;DHT22;25188;51.958;5.842;2023-06-14T00:39:26;20.60;49.90
39021;DHT22;25188;51.958;5.842;2023-06-14T00:41:51;20.60;50.20
39021;DHT22;25188;51.958;5.842;2023-06-14T00:44:17;20.60;50.10
39021;DHT22;25188;51.958;5.842;2023-06-14T00:46:44;20.50;50.20
39021;DHT22;25188;51.958;5.842;2023-06-14T00:49:11;20.50;50.20
39021;DHT22;25188;51.958;5.842;2023-06-14T00:51:37;20.50;50.30
39021;DHT22;25188;51.958;5.842;2023-06-14T00:54:03;20.40;50.30
39021;DHT22;25188;51.958;5.842;2023-06-14T00:56:28;20.40;50.50
39021;DHT22;25188;51.958;5.842;2023-06-14T00:58:56;20.40;50.70
39021;DHT22;25188;51.958;5.842;2023-06-14T01:01:22;20.30;50.70
39021;DHT22;25188;51.958;5.842;2023-06-14T01:03:47;20.30;50.50
39021;DHT22;25188;51.958;5.842;2023-06-14T01:06:23;20.30;50.70
39021;DHT22;25188;51.958;5.842;2023-06-14T01:09:18;20.20;50.60
39021;DHT22;25188;51.958;5.842;2023-06-14T01:14:22;20.10;50.90
39021;DHT22;25188;51.958;5.842;2023-06-14T01:16:49;20.10;51.00
39021;DHT22;25188;51.958;5.842;2023-06-14T01:19:18;20.10;51.00
39021;DHT22;25188;51.958;5.842;2023-06-14T01:21:48;20.10;51.10
39021;DHT22;25188;51.958;5.842;2023-06-14T01:24:16;20.10;51.50
39021;DHT22;25188;51.958;5.842;2023-06-14T01:26:45;20.00;51.40
39021;DHT22;25188;51.958;5.842;2023-06-14T01:29:17;20.00;51.50
39021;DHT22;25188;51.958;5.842;2023-06-14T01:31:43;19.90;51.50
39021;DHT22;25188;51.958;5.842;2023-06-14T01:34:09;19.90;51.60
39021;DHT22;25188;51.958;5.842;2023-06-14T01:36:36;19.90;51.70
39021;DHT22;25188;51.958;5.842;2023-06-14T01:39:05;19.90;51.80
39021;DHT22;25188;51.958;5.842;2023-06-14T01:41:31;19.80;51.70
39021;DHT22;25188;51.958;5.842;2023-06-14T01:43:58;19.80;51.70
39021;DHT22;25188;51.958;5.842;2023-06-14T01:46:24;19.80;51.90
39021;DHT22;25188;51.958;5.842;2023-06-14T01:48:50;19.80;51.90
39021;DHT22;25188;51.958;5.842;2023-06-14T01:51:16;19.70;51.90
39021;DHT22;25188;51.958;5.842;2023-06-14T01:53:42;19.70;52.10
39021;DHT22;25188;51.958;5.842;2023-06-14T01:56:07;19.70;52.20
39021;DHT22;25188;51.958;5.842;2023-06-14T01:58:33;19.70;52.30
39021;DHT22;25188;51.958;5.842;2023-06-14T02:00:58;19.60;52.30
39021;DHT22;25188;51.958;5.842;2023-06-14T02:03:26;19.60;52.40
39021;DHT22;25188;51.958;5.842;2023-06-14T02:05:52;19.60;52.70
39021;DHT22;25188;51.958;5.842;2023-06-14T02:08:17;19.60;52.80
39021;DHT22;25188;51.958;5.842;2023-06-14T02:10:43;19.50;52.90
39021;DHT22;25188;51.958;5.842;2023-06-14T02:13:09;19.50;53.00
39021;DHT22;25188;51.958;5.842;2023-06-14T02:15:34;19.50;53.00
39021;DHT22;25188;51.958;5.842;2023-06-14T02:18:04;19.40;53.10
39021;DHT22;25188;51.958;5.842;2023-06-14T02:20:30;19.40;52.90
39021;DHT22;25188;51.958;5.842;2023-06-14T02:22:58;19.40;53.20
39021;DHT22;25188;51.958;5.842;2023-06-14T02:25:23;19.40;53.40
39021;DHT22;25188;51.958;5.842;2023-06-14T02:27:49;19.30;53.40
39021;DHT22;25188;51.958;5.842;2023-06-14T02:30:15;19.30;53.50
39021;DHT22;25188;51.958;5.842;2023-06-14T02:32:41;19.30;53.70
39021;DHT22;25188;51.958;5.842;2023-06-14T02:35:08;19.30;53.80
39021;DHT22;25188;51.958;5.842;2023-06-14T02:37:34;19.20;53.80
39021;DHT22;25188;51.958;5.842;2023-06-14T02:40:00;19.20;54.10
39021;DHT22;25188;51.958;5.842;2023-06-14T02:42:26;19.10;54.10
39021;DHT22;25188;51.958;5.842;2023-06-14T02:44:51;19.10;54.30
39021;DHT22;25188;51.958;5.842;2023-06-14T02:47:20;19.10;54.10
39021;DHT22;25188;51.958;5.842;2023-06-14T02:49:46;19.10;54.30
39021;DHT22;25188;51.958;5.842;2023-06-14T02:52:14;19.00;54.30
39021;DHT22;25188;51.958;5.842;2023-06-14T02:54:40;19.00;54.40
39021;DHT22;25188;51.958;5.842;2023-06-14T02:57:07;19.00;54.40
39021;DHT22;25188;51.958;5.842;2023-06-14T02:59:33;19.00;54.30
39021;DHT22;25188;51.958;5.842;2023-06-14T03:01:59;18.90;54.40
39021;DHT22;25188;51.958;5.842;2023-06-14T03:04:25;18.90;54.50
39021;DHT22;25188;51.958;5.842;2023-06-14T03:06:52;18.90;54.70
39021;DHT22;25188;51.958;5.842;2023-06-14T03:09:19;18.80;54.60
39021;DHT22;25188;51.958;5.842;2023-06-14T03:11:45;18.80;54.90
39021;DHT22;25188;51.958;5.842;2023-06-14T03:14:11;18.80;54.90
39021;DHT22;25188;51.958;5.842;2023-06-14T03:16:38;18.80;55.20
39021;DHT22;25188;51.958;5.842;2023-06-14T03:19:04;18.80;55.20
39021;DHT22;25188;51.958;5.842;2023-06-14T03:21:30;18.70;55.40
39021;DHT22;25188;51.958;5.842;2023-06-14T03:23:55;18.70;55.30
39021;DHT22;25188;51.958;5.842;2023-06-14T03:26:21;18.70;55.50
39021;DHT22;25188;51.958;5.842;2023-06-14T03:28:47;18.70;55.60
39021;DHT22;25188;51.958;5.842;2023-06-14T03:31:16;18.70;55.70
39021;DHT22;25188;51.958;5.842;2023-06-14T03:33:42;18.60;55.70
39021;DHT22;25188;51.958;5.842;2023-06-14T03:36:08;18.60;55.70
39021;DHT22;25188;51.958;5.842;2023-06-14T03:38:34;18.60;55.80
39021;DHT22;25188;51.958;5.842;2023-06-14T03:41:00;18.60;55.70
39021;DHT22;25188;51.958;5.842;2023-06-14T03:43:26;18.60;55.90
39021;DHT22;25188;51.958;5.842;2023-06-14T03:45:52;18.60;56.00
39021;DHT22;25188;51.958;5.842;2023-06-14T03:48:18;18.50;56.00
39021;DHT22;25188;51.958;5.842;2023-06-14T03:50:43;18.50;56.30
39021;DHT22;25188;51.958;5.842;2023-06-14T03:53:10;18.50;56.30
39021;DHT22;25188;51.958;5.842;2023-06-14T03:55:36;18.50;56.40
39021;DHT22;25188;51.958;5.842;2023-06-14T03:58:03;18.50;56.50
39021;DHT22;25188;51.958;5.842;2023-06-14T04:00:29;18.50;56.50
39021;DHT22;25188;51.958;5.842;2023-06-14T04:02:54;18.40;56.50
39021;DHT22;25188;51.958;5.842;2023-06-14T04:05:20;18.50;56.80
39021;DHT22;25188;51.958;5.842;2023-06-14T04:07:46;18.50;56.70
39021;DHT22;25188;51.958;5.842;2023-06-14T04:10:15;18.40;56.70
39021;DHT22;25188;51.958;5.842;2023-06-14T04:12:42;18.40;56.90
39021;DHT22;25188;51.958;5.842;2023-06-14T04:15:08;18.50;57.00
39021;DHT22;25188;51.958;5.842;2023-06-14T04:17:34;18.40;56.90
39021;DHT22;25188;51.958;5.842;2023-06-14T04:20:01;18.40;57.10
39021;DHT22;25188;51.958;5.842;2023-06-14T04:22:26;18.40;57.00
39021;DHT22;25188;51.958;5.842;2023-06-14T04:24:56;18.40;57.10
39021;DHT22;25188;51.958;5.842;2023-06-14T04:27:26;18.40;57.30
39021;DHT22;25188;51.958;5.842;2023-06-14T04:29:52;18.40;57.90
39021;DHT22;25188;51.958;5.842;2023-06-14T04:32:26;18.40;57.30
39021;DHT22;25188;51.958;5.842;2023-06-14T04:34:55;18.40;57.40
39021;DHT22;25188;51.958;5.842;2023-06-14T04:37:22;18.40;57.40
39021;DHT22;25188;51.958;5.842;2023-06-14T04:39:50;18.40;57.50
39021;DHT22;25188;51.958;5.842;2023-06-14T04:42:17;18.40;57.50
39021;DHT22;25188;51.958;5.842;2023-06-14T04:44:45;18.40;57.60
39021;DHT22;25188;51.958;5.842;2023-06-14T04:47:13;18.50;57.50
39021;DHT22;25188;51.958;5.842;2023-06-14T04:49:39;18.50;57.50
39021;DHT22;25188;51.958;5.842;2023-06-14T04:52:07;18.40;57.60
39021;DHT22;25188;51.958;5.842;2023-06-14T04:54:33;18.50;58.10
39021;DHT22;25188;51.958;5.842;2023-06-14T04:56:59;18.50;57.80
39021;DHT22;25188;51.958;5.842;2023-06-14T04:59:25;18.50;57.80
39021;DHT22;25188;51.958;5.842;2023-06-14T05:01:51;18.50;57.70
39021;DHT22;25188;51.958;5.842;2023-06-14T05:04:19;18.50;57.70
39021;DHT22;25188;51.958;5.842;2023-06-14T05:06:46;18.50;57.70
39021;DHT22;25188;51.958;5.842;2023-06-14T05:09:15;18.50;57.70
39021;DHT22;25188;51.958;5.842;2023-06-14T05:11:42;18.50;58.00
39021;DHT22;25188;51.958;5.842;2023-06-14T05:14:10;18.60;57.90
39021;DHT22;25188;51.958;5.842;2023-06-14T05:16:36;18.60;57.80
39021;DHT22;25188;51.958;5.842;2023-06-14T05:19:02;18.60;57.80
39021;DHT22;25188;51.958;5.842;2023-06-14T05:21:30;18.60;57.80
39021;DHT22;25188;51.958;5.842;2023-06-14T05:23:56;18.60;57.90
39021;DHT22;25188;51.958;5.842;2023-06-14T05:26:21;18.60;57.90
39021;DHT22;25188;51.958;5.842;2023-06-14T05:28:49;18.60;57.70
39021;DHT22;25188;51.958;5.842;2023-06-14T05:31:15;18.60;57.70
39021;DHT22;25188;51.958;5.842;2023-06-14T05:33:41;18.70;57.60
39021;DHT22;25188;51.958;5.842;2023-06-14T05:36:07;18.70;57.70
39021;DHT22;25188;51.958;5.842;2023-06-14T05:38:32;18.60;57.80
39021;DHT22;25188;51.958;5.842;2023-06-14T05:40:58;18.70;58.00
39021;DHT22;25188;51.958;5.842;2023-06-14T05:43:24;18.70;57.90
39021;DHT22;25188;51.958;5.842;2023-06-14T05:45:50;18.70;57.80
39021;DHT22;25188;51.958;5.842;2023-06-14T05:48:16;18.70;57.80
39021;DHT22;25188;51.958;5.842;2023-06-14T05:50:41;18.70;57.90
39021;DHT22;25188;51.958;5.842;2023-06-14T05:53:07;18.80;57.80
39021;DHT22;25188;51.958;5.842;2023-06-14T05:55:32;18.80;57.90
39021;DHT22;25188;51.958;5.842;2023-06-14T05:57:58;18.80;57.90
39021;DHT22;25188;51.958;5.842;2023-06-14T06:00:24;18.80;57.80
39021;DHT22;25188;51.958;5.842;2023-06-14T06:02:49;18.90;58.00
39021;DHT22;25188;51.958;5.842;2023-06-14T06:05:15;18.90;57.90
39021;DHT22;25188;51.958;5.842;2023-06-14T06:07:41;18.90;57.90
39021;DHT22;25188;51.958;5.842;2023-06-14T06:10:07;18.90;58.30
39021;DHT22;25188;51.958;5.842;2023-06-14T06:12:33;19.00;57.70
39021;DHT22;25188;51.958;5.842;2023-06-14T06:14:59;19.00;57.70
39021;DHT22;25188;51.958;5.842;2023-06-14T06:17:26;19.10;57.90
39021;DHT22;25188;51.958;5.842;2023-06-14T06:19:52;19.10;57.90
39021;DHT22;25188;51.958;5.842;2023-06-14T06:22:17;19.10;58.00
39021;DHT22;25188;51.958;5.842;2023-06-14T06:24:43;19.20;58.00
39021;DHT22;25188;51.958;5.842;2023-06-14T06:27:09;19.20;57.90
39021;DHT22;25188;51.958;5.842;2023-06-14T06:29:35;19.30;57.90
39021;DHT22;25188;51.958;5.842;2023-06-14T06:32:01;19.30;57.80
39021;DHT22;25188;51.958;5.842;2023-06-14T06:34:27;19.30;57.70
39021;DHT22;25188;51.958;5.842;2023-06-14T06:36:53;19.40;57.60
39021;DHT22;25188;51.958;5.842;2023-06-14T06:39:18;19.40;57.70
39021;DHT22;25188;51.958;5.842;2023-06-14T06:41:44;19.50;57.60
39021;DHT22;25188;51.958;5.842;2023-06-14T06:44:10;19.60;57.80
39021;DHT22;25188;51.958;5.842;2023-06-14T06:46:36;19.60;57.60
39021;DHT22;25188;51.958;5.842;2023-06-14T06:49:06;19.70;57.70
39021;DHT22;25188;51.958;5.842;2023-06-14T06:51:31;19.70;57.60
39021;DHT22;25188;51.958;5.842;2023-06-14T06:53:57;19.80;57.60
39021;DHT22;25188;51.958;5.842;2023-06-14T06:56:23;19.80;57.40
39021;DHT22;25188;51.958;5.842;2023-06-14T06:58:50;19.90;57.20
39021;DHT22;25188;51.958;5.842;2023-06-14T07:01:16;19.90;57.00
39021;DHT22;25188;51.958;5.842;2023-06-14T07:03:42;20.00;57.20
39021;DHT22;25188;51.958;5.842;2023-06-14T07:06:08;20.00;56.90
39021;DHT22;25188;51.958;5.842;2023-06-14T07:08:34;20.00;56.70
39021;DHT22;25188;51.958;5.842;2023-06-14T07:11:01;20.10;56.70
39021;DHT22;25188;51.958;5.842;2023-06-14T07:13:27;20.10;56.40
39021;DHT22;25188;51.958;5.842;2023-06-14T07:15:58;20.20;56.30
39021;DHT22;25188;51.958;5.842;2023-06-14T07:18:24;20.20;56.20
39021;DHT22;25188;51.958;5.842;2023-06-14T07:20:50;20.20;56.10
39021;DHT22;25188;51.958;5.842;2023-06-14T07:23:16;20.30;56.10
39021;DHT22;25188;51.958;5.842;2023-06-14T07:25:41;20.40;56.00
39021;DHT22;25188;51.958;5.842;2023-06-14T07:28:07;20.40;55.90
39021;DHT22;25188;51.958;5.842;2023-06-14T07:30:33;20.40;55.70
39021;DHT22;25188;51.958;5.842;2023-06-14T07:32:58;20.50;55.50
39021;DHT22;25188;51.958;5.842;2023-06-14T07:35:24;20.60;55.50
39021;DHT22;25188;51.958;5.842;2023-06-14T07:37:49;20.60;55.50
39021;DHT22;25188;51.958;5.842;2023-06-14T07:40:15;20.60;55.30
39021;DHT22;25188;51.958;5.842;2023-06-14T07:42:41;20.70;55.10
39021;DHT22;25188;51.958;5.842;2023-06-14T07:45:07;20.70;55.00
39021;DHT22;25188;51.958;5.842;2023-06-14T07:47:33;20.80;55.00
39021;DHT22;25188;51.958;5.842;2023-06-14T07:49:59;20.80;54.80
39021;DHT22;25188;51.958;5.842;2023-06-14T07:52:25;20.90;54.80
39021;DHT22;25188;51.958;5.842;2023-06-14T07:54:51;20.90;54.50
39021;DHT22;25188;51.958;5.842;2023-06-14T07:57:16;21.00;54.20
39021;DHT22;25188;51.958;5.842;2023-06-14T07:59:42;21.10;54.20
39021;DHT22;25188;51.958;5.842;2023-06-14T08:02:08;21.20;54.80
39021;DHT22;25188;51.958;5.842;2023-06-14T08:04:33;21.20;53.90
39021;DHT22;25188;51.958;5.842;2023-06-14T08:06:59;21.20;53.80
39021;DHT22;25188;51.958;5.842;2023-06-14T08:09:26;21.30;53.70
39021;DHT22;25188;51.958;5.842;2023-06-14T08:11:54;21.40;53.60
39021;DHT22;25188;51.958;5.842;2023-06-14T08:14:19;21.40;53.00
39021;DHT22;25188;51.958;5.842;2023-06-14T08:16:45;21.50;52.80
39021;DHT22;25188;51.958;5.842;2023-06-14T08:19:11;21.50;52.50
39021;DHT22;25188;51.958;5.842;2023-06-14T08:21:37;21.60;52.40
39021;DHT22;25188;51.958;5.842;2023-06-14T08:24:02;21.60;51.90
39021;DHT22;25188;51.958;5.842;2023-06-14T08:26:29;21.70;51.50
39021;DHT22;25188;51.958;5.842;2023-06-14T08:28:55;21.80;51.20
39021;DHT22;25188;51.958;5.842;2023-06-14T08:31:21;21.80;51.10
39021;DHT22;25188;51.958;5.842;2023-06-14T08:33:47;21.90;50.70
39021;DHT22;25188;51.958;5.842;2023-06-14T08:36:13;21.90;50.50
39021;DHT22;25188;51.958;5.842;2023-06-14T08:38:39;22.00;50.50
39021;DHT22;25188;51.958;5.842;2023-06-14T08:41:05;22.00;50.50
39021;DHT22;25188;51.958;5.842;2023-06-14T08:43:32;22.10;50.70
39021;DHT22;25188;51.958;5.842;2023-06-14T08:46:03;22.10;50.90
39021;DHT22;25188;51.958;5.842;2023-06-14T08:48:30;22.20;50.60
39021;DHT22;25188;51.958;5.842;2023-06-14T08:51:00;22.20;50.40
39021;DHT22;25188;51.958;5.842;2023-06-14T08:53:31;22.30;50.30
39021;DHT22;25188;51.958;5.842;2023-06-14T08:55:59;22.40;49.70
39021;DHT22;25188;51.958;5.842;2023-06-14T08:58:28;22.40;49.10
39021;DHT22;25188;51.958;5.842;2023-06-14T09:00:57;22.50;49.00
39021;DHT22;25188;51.958;5.842;2023-06-14T09:03:23;22.50;48.90
39021;DHT22;25188;51.958;5.842;2023-06-14T09:05:56;22.60;48.90
39021;DHT22;25188;51.958;5.842;2023-06-14T09:08:22;22.70;48.70
39021;DHT22;25188;51.958;5.842;2023-06-14T09:10:49;22.80;48.70
39021;DHT22;25188;51.958;5.842;2023-06-14T09:13:15;22.80;48.70
39021;DHT22;25188;51.958;5.842;2023-06-14T09:15:41;22.90;48.80
39021;DHT22;25188;51.958;5.842;2023-06-14T09:18:07;22.90;48.60
39021;DHT22;25188;51.958;5.842;2023-06-14T09:20:33;23.00;48.30
39021;DHT22;25188;51.958;5.842;2023-06-14T09:23:00;23.10;48.20
39021;DHT22;25188;51.958;5.842;2023-06-14T09:25:26;23.20;48.20
39021;DHT22;25188;51.958;5.842;2023-06-14T09:27:53;23.30;48.00
39021;DHT22;25188;51.958;5.842;2023-06-14T09:30:20;23.30;48.00
39021;DHT22;25188;51.958;5.842;2023-06-14T09:32:46;23.40;48.00
39021;DHT22;25188;51.958;5.842;2023-06-14T09:35:12;23.50;47.80
39021;DHT22;25188;51.958;5.842;2023-06-14T09:37:42;23.50;47.40
39021;DHT22;25188;51.958;5.842;2023-06-14T09:40:08;23.50;47.40
39021;DHT22;25188;51.958;5.842;2023-06-14T09:42:35;23.60;47.50
39021;DHT22;25188;51.958;5.842;2023-06-14T09:45:02;23.60;47.60
39021;DHT22;25188;51.958;5.842;2023-06-14T09:47:29;23.60;48.10
39021;DHT22;25188;51.958;5.842;2023-06-14T09:49:55;23.70;47.50
39021;DHT22;25188;51.958;5.842;2023-06-14T09:52:21;23.70;47.40
39021;DHT22;25188;51.958;5.842;2023-06-14T09:54:48;23.80;47.60
39021;DHT22;25188;51.958;5.842;2023-06-14T09:57:21;23.80;47.70
39021;DHT22;25188;51.958;5.842;2023-06-14T09:59:48;23.80;47.30
39021;DHT22;25188;51.958;5.842;2023-06-14T10:02:23;23.90;47.10
39021;DHT22;25188;51.958;5.842;2023-06-14T10:10:13;24.10;47.40
39021;DHT22;25188;51.958;5.842;2023-06-14T10:12:39;24.10;47.50
39021;DHT22;25188;51.958;5.842;2023-06-14T10:15:08;24.20;47.60
39021;DHT22;25188;51.958;5.842;2023-06-14T10:17:52;24.20;47.10
39021;DHT22;25188;51.958;5.842;2023-06-14T10:20:33;24.30;46.70
39021;DHT22;25188;51.958;5.842;2023-06-14T10:23:10;24.40;46.30
39021;DHT22;25188;51.958;5.842;2023-06-14T10:25:37;24.40;46.20
39021;DHT22;25188;51.958;5.842;2023-06-14T10:28:14;24.50;46.20
39021;DHT22;25188;51.958;5.842;2023-06-14T10:31:01;24.60;46.00
39021;DHT22;25188;51.958;5.842;2023-06-14T10:33:34;24.60;45.80
39021;DHT22;25188;51.958;5.842;2023-06-14T10:36:29;24.70;45.90
39021;DHT22;25188;51.958;5.842;2023-06-14T10:41:28;25.00;45.80
39021;DHT22;25188;51.958;5.842;2023-06-14T10:46:54;25.20;45.20
39021;DHT22;25188;51.958;5.842;2023-06-14T10:49:36;25.30;45.10
39021;DHT22;25188;51.958;5.842;2023-06-14T10:52:16;25.50;44.80
39021;DHT22;25188;51.958;5.842;2023-06-14T10:55:03;25.70;44.50
39021;DHT22;25188;51.958;5.842;2023-06-14T10:57:30;25.90;44.30
39021;DHT22;25188;51.958;5.842;2023-06-14T10:59:58;26.10;44.30
39021;DHT22;25188;51.958;5.842;2023-06-14T11:05:27;26.50;44.10
39021;DHT22;25188;51.958;5.842;2023-06-14T11:10:37;26.90;43.40
39021;DHT22;25188;51.958;5.842;2023-06-14T11:13:04;27.00;43.00
39021;DHT22;25188;51.958;5.842;2023-06-14T11:15:30;27.30;42.80
39021;DHT22;25188;51.958;5.842;2023-06-14T11:17:56;27.50;42.70
39021;DHT22;25188;51.958;5.842;2023-06-14T11:20:27;27.60;42.30
39021;DHT22;25188;51.958;5.842;2023-06-14T11:22:53;27.80;41.90
39021;DHT22;25188;51.958;5.842;2023-06-14T11:25:19;28.00;41.60
39021;DHT22;25188;51.958;5.842;2023-06-14T11:27:46;28.10;41.60
39021;DHT22;25188;51.958;5.842;2023-06-14T11:30:13;28.30;42.00
39021;DHT22;25188;51.958;5.842;2023-06-14T11:32:39;28.50;41.40
39021;DHT22;25188;51.958;5.842;2023-06-14T11:35:06;28.70;41.30
39021;DHT22;25188;51.958;5.842;2023-06-14T11:37:32;28.90;41.10
39021;DHT22;25188;51.958;5.842;2023-06-14T11:40:03;29.10;41.00
39021;DHT22;25188;51.958;5.842;2023-06-14T11:42:35;29.20;40.50
39021;DHT22;25188;51.958;5.842;2023-06-14T11:45:01;29.40;40.40
39021;DHT22;25188;51.958;5.842;2023-06-14T11:47:38;29.50;39.90
39021;DHT22;25188;51.958;5.842;2023-06-14T11:50:06;29.70;39.50
39021;DHT22;25188;51.958;5.842;2023-06-14T11:52:32;29.80;39.00
39021;DHT22;25188;51.958;5.842;2023-06-14T11:54:58;29.90;38.90
39021;DHT22;25188;51.958;5.842;2023-06-14T11:57:25;30.10;38.80
39021;DHT22;25188;51.958;5.842;2023-06-14T11:59:51;30.30;38.80
39021;DHT22;25188;51.958;5.842;2023-06-14T12:02:19;30.50;38.70
39021;DHT22;25188;51.958;5.842;2023-06-14T12:04:47;30.70;38.40
39021;DHT22;25188;51.958;5.842;2023-06-14T12:07:15;30.90;38.10
39021;DHT22;25188;51.958;5.842;2023-06-14T12:10:04;31.00;38.00
39021;DHT22;25188;51.958;5.842;2023-06-14T12:12:38;31.10;37.80
39021;DHT22;25188;51.958;5.842;2023-06-14T12:15:05;31.40;37.80
39021;DHT22;25188;51.958;5.842;2023-06-14T12:17:37;31.50;37.70
39021;DHT22;25188;51.958;5.842;2023-06-14T12:20:10;31.70;37.30
39021;DHT22;25188;51.958;5.842;2023-06-14T12:22:37;31.80;36.90
39021;DHT22;25188;51.958;5.842;2023-06-14T12:25:04;31.90;36.70
39021;DHT22;25188;51.958;5.842;2023-06-14T12:27:31;32.10;36.70
39021;DHT22;25188;51.958;5.842;2023-06-14T12:30:01;32.20;36.60
39021;DHT22;25188;51.958;5.842;2023-06-14T12:32:26;32.40;36.50
39021;DHT22;25188;51.958;5.842;2023-06-14T12:34:52;32.70;36.50
39021;DHT22;25188;51.958;5.842;2023-06-14T12:37:18;32.80;36.20
39021;DHT22;25188;51.958;5.842;2023-06-14T12:39:43;33.00;36.10
39021;DHT22;25188;51.958;5.842;2023-06-14T12:42:09;33.10;36.10
39021;DHT22;25188;51.958;5.842;2023-06-14T12:44:35;33.20;36.10
39021;DHT22;25188;51.958;5.842;2023-06-14T12:47:06;33.30;36.10
39021;DHT22;25188;51.958;5.842;2023-06-14T12:49:33;33.50;36.10
39021;DHT22;25188;51.958;5.842;2023-06-14T12:51:59;33.60;35.90
39021;DHT22;25188;51.958;5.842;2023-06-14T12:54:24;33.80;35.70
39021;DHT22;25188;51.958;5.842;2023-06-14T12:56:53;33.80;35.60
39021;DHT22;25188;51.958;5.842;2023-06-14T12:59:20;34.00;35.70
39021;DHT22;25188;51.958;5.842;2023-06-14T13:01:46;34.10;35.60
39021;DHT22;25188;51.958;5.842;2023-06-14T13:04:15;34.30;35.50
39021;DHT22;25188;51.958;5.842;2023-06-14T13:06:41;34.40;35.00
39021;DHT22;25188;51.958;5.842;2023-06-14T13:09:07;34.50;35.00
39021;DHT22;25188;51.958;5.842;2023-06-14T13:11:33;34.60;35.00
39021;DHT22;25188;51.958;5.842;2023-06-14T13:14:00;34.80;34.80
39021;DHT22;25188;51.958;5.842;2023-06-14T13:16:25;35.00;34.70
39021;DHT22;25188;51.958;5.842;2023-06-14T13:18:51;35.20;34.70
39021;DHT22;25188;51.958;5.842;2023-06-14T13:21:17;35.30;35.20
39021;DHT22;25188;51.958;5.842;2023-06-14T13:23:42;35.40;34.50
39021;DHT22;25188;51.958;5.842;2023-06-14T13:26:08;35.50;34.40
39021;DHT22;25188;51.958;5.842;2023-06-14T13:28:34;35.70;34.10
39021;DHT22;25188;51.958;5.842;2023-06-14T13:31:01;35.80;33.80
39021;DHT22;25188;51.958;5.842;2023-06-14T13:33:28;35.90;33.50
39021;DHT22;25188;51.958;5.842;2023-06-14T13:35:54;36.10;33.30
39021;DHT22;25188;51.958;5.842;2023-06-14T13:38:20;36.30;33.20
39021;DHT22;25188;51.958;5.842;2023-06-14T13:40:45;36.40;32.90
39021;DHT22;25188;51.958;5.842;2023-06-14T13:43:11;36.50;32.50
39021;DHT22;25188;51.958;5.842;2023-06-14T13:45:37;36.70;32.20
39021;DHT22;25188;51.958;5.842;2023-06-14T13:48:02;36.80;32.10
39021;DHT22;25188;51.958;5.842;2023-06-14T13:50:28;36.90;31.90
39021;DHT22;25188;51.958;5.842;2023-06-14T13:52:54;36.90;31.90
39021;DHT22;25188;51.958;5.842;2023-06-14T13:55:19;37.10;31.90
39021;DHT22;25188;51.958;5.842;2023-06-14T13:57:45;37.30;31.60
39021;DHT22;25188;51.958;5.842;2023-06-14T14:00:12;37.40;31.40
39021;DHT22;25188;51.958;5.842;2023-06-14T14:02:38;37.60;31.40
39021;DHT22;25188;51.958;5.842;2023-06-14T14:05:05;37.70;31.30
39021;DHT22;25188;51.958;5.842;2023-06-14T14:07:32;37.80;30.90
39021;DHT22;25188;51.958;5.842;2023-06-14T14:10:04;37.80;30.60
39021;DHT22;25188;51.958;5.842;2023-06-14T14:12:29;37.80;30.50
39021;DHT22;25188;51.958;5.842;2023-06-14T14:14:55;37.90;30.60
39021;DHT22;25188;51.958;5.842;2023-06-14T14:17:21;38.00;30.60
39021;DHT22;25188;51.958;5.842;2023-06-14T14:19:47;38.00;30.60
39021;DHT22;25188;51.958;5.842;2023-06-14T14:22:14;38.00;30.70
39021;DHT22;25188;51.958;5.842;2023-06-14T14:24:40;37.90;30.60
39021;DHT22;25188;51.958;5.842;2023-06-14T14:27:06;37.90;31.40
39021;DHT22;25188;51.958;5.842;2023-06-14T14:29:32;37.90;30.80
39021;DHT22;25188;51.958;5.842;2023-06-14T14:31:57;38.00;30.80
39021;DHT22;25188;51.958;5.842;2023-06-14T14:34:24;38.00;30.70
39021;DHT22;25188;51.958;5.842;2023-06-14T14:36:50;38.10;30.80
39021;DHT22;25188;51.958;5.842;2023-06-14T14:39:16;38.20;30.80
39021;DHT22;25188;51.958;5.842;2023-06-14T14:41:42;38.20;30.70
39021;DHT22;25188;51.958;5.842;2023-06-14T14:44:07;38.30;30.60
39021;DHT22;25188;51.958;5.842;2023-06-14T14:46:33;38.40;30.50
39021;DHT22;25188;51.958;5.842;2023-06-14T14:48:59;38.50;30.50
39021;DHT22;25188;51.958;5.842;2023-06-14T14:51:25;38.40;30.20
39021;DHT22;25188;51.958;5.842;2023-06-14T14:53:51;38.50;30.20
39021;DHT22;25188;51.958;5.842;2023-06-14T14:56:16;38.50;30.20
39021;DHT22;25188;51.958;5.842;2023-06-14T14:58:42;38.40;30.40
39021;DHT22;25188;51.958;5.842;2023-06-14T15:01:08;38.40;30.50
39021;DHT22;25188;51.958;5.842;2023-06-14T15:03:33;38.30;30.30
39021;DHT22;25188;51.958;5.842;2023-06-14T15:05:59;38.20;30.30
39021;DHT22;25188;51.958;5.842;2023-06-14T15:08:25;38.20;30.40
39021;DHT22;25188;51.958;5.842;2023-06-14T15:10:50;38.30;30.40
39021;DHT22;25188;51.958;5.842;2023-06-14T15:13:16;38.40;30.50
39021;DHT22;25188;51.958;5.842;2023-06-14T15:15:42;38.40;30.30
39021;DHT22;25188;51.958;5.842;2023-06-14T15:18:07;38.30;30.40
39021;DHT22;25188;51.958;5.842;2023-06-14T15:20:34;38.10;30.50
39021;DHT22;25188;51.958;5.842;2023-06-14T15:23:00;38.00;30.60
39021;DHT22;25188;51.958;5.842;2023-06-14T15:25:29;37.90;30.70
39021;DHT22;25188;51.958;5.842;2023-06-14T15:27:55;37.80;30.60
39021;DHT22;25188;51.958;5.842;2023-06-14T15:30:21;37.70;30.60
39021;DHT22;25188;51.958;5.842;2023-06-14T15:32:47;37.70;30.60
39021;DHT22;25188;51.958;5.842;2023-06-14T15:35:15;37.50;30.70
39021;DHT22;25188;51.958;5.842;2023-06-14T15:37:40;37.30;30.90
39021;DHT22;25188;51.958;5.842;2023-06-14T15:40:06;37.00;31.00
39021;DHT22;25188;51.958;5.842;2023-06-14T15:42:32;36.70;31.00
39021;DHT22;25188;51.958;5.842;2023-06-14T15:44:57;36.40;31.10
39021;DHT22;25188;51.958;5.842;2023-06-14T15:47:23;36.10;31.40